sensor_id;sensor_type;location;lat;lon;timestamp;P1;durP1;ratioP1;P2;durP2;ratioP2
44026;SDS011;29696;55.698;37.460;2023-03-01T00:01:50;2.03;;;1.43;;
44026;SDS011;29696;55.698;37.460;2023-03-01T00:04:17;2.47;;;1.73;;
44026;SDS011;29696;55.698;37.460;2023-03-01T00:06:43;2.93;;;1.40;;
44026;SDS011;29696;55.698;37.460;2023-03-01T00:09:12;1.40;;;1.30;;
44026;SDS011;29696;55.698;37.460;2023-03-01T00:11:39;2.60;;;1.37;;
44026;SDS011;29696;55.698;37.460;2023-03-01T00:14:06;1.93;;;1.60;;
44026;SDS011;29696;55.698;37.460;2023-03-01T00:16:37;2.43;;;1.80;;
44026;SDS011;29696;55.698;37.460;2023-03-01T00:19:05;4.90;;;1.97;;
44026;SDS011;29696;55.698;37.460;2023-03-01T00:21:37;4.00;;;2.50;;
44026;SDS011;29696;55.698;37.460;2023-03-01T00:24:04;6.83;;;1.80;;
44026;SDS011;29696;55.698;37.460;2023-03-01T00:26:30;4.60;;;1.37;;
44026;SDS011;29696;55.698;37.460;2023-03-01T00:28:57;1.33;;;1.20;;
44026;SDS011;29696;55.698;37.460;2023-03-01T00:31:27;5.17;;;1.43;;
44026;SDS011;29696;55.698;37.460;2023-03-01T00:33:57;4.47;;;1.53;;
44026;SDS011;29696;55.698;37.460;2023-03-01T00:36:31;2.23;;;1.43;;
44026;SDS011;29696;55.698;37.460;2023-03-01T00:39:00;1.23;;;1.13;;
44026;SDS011;29696;55.698;37.460;2023-03-01T00:41:27;1.60;;;1.23;;
44026;SDS011;29696;55.698;37.460;2023-03-01T00:43:54;8.87;;;1.60;;
44026;SDS011;29696;55.698;37.460;2023-03-01T00:46:22;6.07;;;1.40;;
44026;SDS011;29696;55.698;37.460;2023-03-01T00:48:50;3.37;;;2.07;;
44026;SDS011;29696;55.698;37.460;2023-03-01T00:51:21;5.77;;;1.30;;
44026;SDS011;29696;55.698;37.460;2023-03-01T00:53:50;1.30;;;1.20;;
44026;SDS011;29696;55.698;37.460;2023-03-01T00:56:18;1.30;;;1.20;;
44026;SDS011;29696;55.698;37.460;2023-03-01T00:58:45;1.97;;;1.60;;
44026;SDS011;29696;55.698;37.460;2023-03-01T01:01:17;5.07;;;2.43;;
44026;SDS011;29696;55.698;37.460;2023-03-01T01:04:07;2.77;;;1.53;;
44026;SDS011;29696;55.698;37.460;2023-03-01T01:06:38;3.77;;;1.37;;
44026;SDS011;29696;55.698;37.460;2023-03-01T01:09:08;2.33;;;1.47;;
44026;SDS011;29696;55.698;37.460;2023-03-01T01:11:49;1.90;;;1.30;;
44026;SDS011;29696;55.698;37.460;2023-03-01T01:14:17;1.92;;;1.40;;
44026;SDS011;29696;55.698;37.460;2023-03-01T01:16:44;1.43;;;1.23;;
44026;SDS011;29696;55.698;37.460;2023-03-01T01:19:11;3.17;;;1.50;;
44026;SDS011;29696;55.698;37.460;2023-03-01T01:21:37;2.50;;;1.30;;
44026;SDS011;29696;55.698;37.460;2023-03-01T01:24:04;2.17;;;1.73;;
44026;SDS011;29696;55.698;37.460;2023-03-01T01:26:32;4.40;;;1.10;;
44026;SDS011;29696;55.698;37.460;2023-03-01T01:29:00;2.60;;;1.60;;
44026;SDS011;29696;55.698;37.460;2023-03-01T01:31:28;1.60;;;1.50;;
44026;SDS011;29696;55.698;37.460;2023-03-01T01:33:57;3.77;;;1.97;;
44026;SDS011;29696;55.698;37.460;2023-03-01T01:36:25;1.40;;;1.30;;
44026;SDS011;29696;55.698;37.460;2023-03-01T01:38:51;7.47;;;2.47;;
44026;SDS011;29696;55.698;37.460;2023-03-01T01:41:19;2.60;;;2.00;;
44026;SDS011;29696;55.698;37.460;2023-03-01T01:43:47;4.63;;;1.97;;
44026;SDS011;29696;55.698;37.460;2023-03-01T01:46:34;1.90;;;1.70;;
44026;SDS011;29696;55.698;37.460;2023-03-01T01:49:05;2.60;;;2.40;;
44026;SDS011;29696;55.698;37.460;2023-03-01T01:51:58;3.33;;;1.43;;
44026;SDS011;29696;55.698;37.460;2023-03-01T01:54:38;2.03;;;1.20;;
44026;SDS011;29696;55.698;37.460;2023-03-01T01:57:39;1.37;;;1.27;;
44026;SDS011;29696;55.698;37.460;2023-03-01T02:00:14;2.03;;;1.83;;
44026;SDS011;29696;55.698;37.460;2023-03-01T02:02:44;1.55;;;1.45;;
44026;SDS011;29696;55.698;37.460;2023-03-01T02:05:15;1.23;;;1.13;;
44026;SDS011;29696;55.698;37.460;2023-03-01T02:08:10;2.63;;;1.53;;
44026;SDS011;29696;55.698;37.460;2023-03-01T02:10:38;2.67;;;1.30;;
44026;SDS011;29696;55.698;37.460;2023-03-01T02:13:06;6.97;;;1.10;;
44026;SDS011;29696;55.698;37.460;2023-03-01T02:15:34;2.80;;;2.13;;
44026;SDS011;29696;55.698;37.460;2023-03-01T02:18:04;2.67;;;1.93;;
44026;SDS011;29696;55.698;37.460;2023-03-01T02:23:49;3.47;;;2.27;;
44026;SDS011;29696;55.698;37.460;2023-03-01T02:29:24;4.85;;;1.70;;
44026;SDS011;29696;55.698;37.460;2023-03-01T02:31:52;4.27;;;3.97;;
44026;SDS011;29696;55.698;37.460;2023-03-01T02:34:25;1.50;;;1.40;;
44026;SDS011;29696;55.698;37.460;2023-03-01T02:36:55;1.10;;;1.00;;
44026;SDS011;29696;55.698;37.460;2023-03-01T02:39:29;3.63;;;1.47;;
44026;SDS011;29696;55.698;37.460;2023-03-01T02:42:00;7.50;;;2.33;;
44026;SDS011;29696;55.698;37.460;2023-03-01T02:44:28;4.60;;;1.30;;
44026;SDS011;29696;55.698;37.460;2023-03-01T02:46:55;3.37;;;1.23;;
44026;SDS011;29696;55.698;37.460;2023-03-01T02:49:31;3.50;;;2.07;;
44026;SDS011;29696;55.698;37.460;2023-03-01T02:52:04;1.53;;;1.07;;
44026;SDS011;29696;55.698;37.460;2023-03-01T02:55:09;1.60;;;1.50;;
44026;SDS011;29696;55.698;37.460;2023-03-01T02:57:40;2.70;;;1.77;;
44026;SDS011;29696;55.698;37.460;2023-03-01T03:00:13;2.37;;;1.73;;
44026;SDS011;29696;55.698;37.460;2023-03-01T03:02:47;1.85;;;1.27;;
44026;SDS011;29696;55.698;37.460;2023-03-01T03:08:04;3.03;;;1.80;;
44026;SDS011;29696;55.698;37.460;2023-03-01T03:10:36;2.27;;;1.33;;
44026;SDS011;29696;55.698;37.460;2023-03-01T03:13:10;5.53;;;1.30;;
44026;SDS011;29696;55.698;37.460;2023-03-01T03:15:39;4.53;;;2.70;;
44026;SDS011;29696;55.698;37.460;2023-03-01T03:18:09;2.20;;;1.70;;
44026;SDS011;29696;55.698;37.460;2023-03-01T03:20:37;1.43;;;1.33;;
44026;SDS011;29696;55.698;37.460;2023-03-01T03:23:06;5.00;;;1.57;;
44026;SDS011;29696;55.698;37.460;2023-03-01T03:25:32;6.23;;;1.23;;
44026;SDS011;29696;55.698;37.460;2023-03-01T03:28:03;3.00;;;1.57;;
44026;SDS011;29696;55.698;37.460;2023-03-01T03:30:36;4.20;;;1.57;;
44026;SDS011;29696;55.698;37.460;2023-03-01T03:33:07;1.83;;;1.50;;
44026;SDS011;29696;55.698;37.460;2023-03-01T03:35:38;1.40;;;1.30;;
44026;SDS011;29696;55.698;37.460;2023-03-01T03:38:08;1.90;;;1.50;;
44026;SDS011;29696;55.698;37.460;2023-03-01T03:40:42;4.70;;;1.80;;
44026;SDS011;29696;55.698;37.460;2023-03-01T03:43:30;2.20;;;1.53;;
44026;SDS011;29696;55.698;37.460;2023-03-01T03:45:58;2.63;;;2.23;;
44026;SDS011;29696;55.698;37.460;2023-03-01T03:48:25;2.80;;;1.53;;
44026;SDS011;29696;55.698;37.460;2023-03-01T03:50:53;3.13;;;1.40;;
44026;SDS011;29696;55.698;37.460;2023-03-01T03:53:22;4.00;;;1.50;;
44026;SDS011;29696;55.698;37.460;2023-03-01T03:55:49;2.13;;;1.43;;
44026;SDS011;29696;55.698;37.460;2023-03-01T03:58:17;10.03;;;2.60;;
44026;SDS011;29696;55.698;37.460;2023-03-01T04:00:46;7.80;;;3.00;;
44026;SDS011;29696;55.698;37.460;2023-03-01T04:03:13;2.80;;;1.60;;
44026;SDS011;29696;55.698;37.460;2023-03-01T04:05:41;3.80;;;1.53;;
44026;SDS011;29696;55.698;37.460;2023-03-01T04:08:08;5.13;;;1.77;;
44026;SDS011;29696;55.698;37.460;2023-03-01T04:10:39;3.43;;;2.83;;
44026;SDS011;29696;55.698;37.460;2023-03-01T04:13:08;2.47;;;1.73;;
44026;SDS011;29696;55.698;37.460;2023-03-01T04:15:36;7.93;;;3.60;;
44026;SDS011;29696;55.698;37.460;2023-03-01T04:18:03;8.83;;;2.70;;
44026;SDS011;29696;55.698;37.460;2023-03-01T04:20:32;5.07;;;2.63;;
44026;SDS011;29696;55.698;37.460;2023-03-01T04:23:03;6.43;;;2.60;;
44026;SDS011;29696;55.698;37.460;2023-03-01T04:25:37;6.70;;;2.30;;
44026;SDS011;29696;55.698;37.460;2023-03-01T04:28:05;3.40;;;1.87;;
44026;SDS011;29696;55.698;37.460;2023-03-01T04:30:31;2.37;;;1.73;;
44026;SDS011;29696;55.698;37.460;2023-03-01T04:33:02;3.83;;;2.40;;
44026;SDS011;29696;55.698;37.460;2023-03-01T04:35:30;3.93;;;1.93;;
44026;SDS011;29696;55.698;37.460;2023-03-01T04:37:57;2.77;;;2.07;;
44026;SDS011;29696;55.698;37.460;2023-03-01T04:40:24;3.17;;;2.00;;
44026;SDS011;29696;55.698;37.460;2023-03-01T04:42:50;3.63;;;2.07;;
44026;SDS011;29696;55.698;37.460;2023-03-01T04:45:17;3.20;;;2.33;;
44026;SDS011;29696;55.698;37.460;2023-03-01T04:47:44;3.10;;;2.37;;
44026;SDS011;29696;55.698;37.460;2023-03-01T04:50:13;2.63;;;1.83;;
44026;SDS011;29696;55.698;37.460;2023-03-01T04:52:42;5.47;;;2.40;;
44026;SDS011;29696;55.698;37.460;2023-03-01T04:55:10;3.83;;;2.20;;
44026;SDS011;29696;55.698;37.460;2023-03-01T04:57:38;5.73;;;2.80;;
44026;SDS011;29696;55.698;37.460;2023-03-01T05:00:06;5.93;;;1.83;;
44026;SDS011;29696;55.698;37.460;2023-03-01T05:02:51;5.60;;;2.57;;
44026;SDS011;29696;55.698;37.460;2023-03-01T05:08:13;4.03;;;2.17;;
44026;SDS011;29696;55.698;37.460;2023-03-01T05:10:48;8.60;;;2.63;;
44026;SDS011;29696;55.698;37.460;2023-03-01T05:13:17;4.40;;;2.60;;
44026;SDS011;29696;55.698;37.460;2023-03-01T05:15:48;4.50;;;3.30;;
44026;SDS011;29696;55.698;37.460;2023-03-01T05:18:25;7.50;;;3.83;;
44026;SDS011;29696;55.698;37.460;2023-03-01T05:20:54;10.20;;;4.10;;
44026;SDS011;29696;55.698;37.460;2023-03-01T05:23:24;9.17;;;4.27;;
44026;SDS011;29696;55.698;37.460;2023-03-01T05:25:51;6.00;;;4.33;;
44026;SDS011;29696;55.698;37.460;2023-03-01T05:28:18;7.40;;;4.87;;
44026;SDS011;29696;55.698;37.460;2023-03-01T05:30:46;6.03;;;4.50;;
44026;SDS011;29696;55.698;37.460;2023-03-01T05:33:13;7.23;;;4.57;;
44026;SDS011;29696;55.698;37.460;2023-03-01T05:35:40;8.23;;;4.30;;
44026;SDS011;29696;55.698;37.460;2023-03-01T05:38:08;6.03;;;4.30;;
44026;SDS011;29696;55.698;37.460;2023-03-01T05:40:39;6.27;;;3.87;;
44026;SDS011;29696;55.698;37.460;2023-03-01T05:43:06;6.30;;;4.90;;
44026;SDS011;29696;55.698;37.460;2023-03-01T05:45:33;4.77;;;3.70;;
44026;SDS011;29696;55.698;37.460;2023-03-01T05:48:02;3.97;;;3.57;;
44026;SDS011;29696;55.698;37.460;2023-03-01T05:50:35;4.33;;;3.73;;
44026;SDS011;29696;55.698;37.460;2023-03-01T05:53:06;5.15;;;3.38;;
44026;SDS011;29696;55.698;37.460;2023-03-01T05:55:35;4.70;;;3.90;;
44026;SDS011;29696;55.698;37.460;2023-03-01T05:58:03;10.03;;;4.10;;
44026;SDS011;29696;55.698;37.460;2023-03-01T06:00:32;7.50;;;3.57;;
44026;SDS011;29696;55.698;37.460;2023-03-01T06:03:00;6.03;;;3.23;;
44026;SDS011;29696;55.698;37.460;2023-03-01T06:05:27;4.87;;;3.03;;
44026;SDS011;29696;55.698;37.460;2023-03-01T06:07:54;5.77;;;2.97;;
44026;SDS011;29696;55.698;37.460;2023-03-01T06:10:21;5.73;;;3.10;;
44026;SDS011;29696;55.698;37.460;2023-03-01T06:12:48;3.53;;;2.43;;
44026;SDS011;29696;55.698;37.460;2023-03-01T06:15:15;2.93;;;2.17;;
44026;SDS011;29696;55.698;37.460;2023-03-01T06:17:43;8.53;;;3.50;;
44026;SDS011;29696;55.698;37.460;2023-03-01T06:22:58;5.40;;;2.73;;
44026;SDS011;29696;55.698;37.460;2023-03-01T06:25:26;3.63;;;2.83;;
44026;SDS011;29696;55.698;37.460;2023-03-01T06:27:53;5.23;;;3.63;;
44026;SDS011;29696;55.698;37.460;2023-03-01T06:30:20;3.00;;;2.40;;
44026;SDS011;29696;55.698;37.460;2023-03-01T06:32:48;6.80;;;3.60;;
44026;SDS011;29696;55.698;37.460;2023-03-01T06:35:14;5.80;;;3.73;;
44026;SDS011;29696;55.698;37.460;2023-03-01T06:37:45;4.67;;;2.60;;
44026;SDS011;29696;55.698;37.460;2023-03-01T06:40:13;5.67;;;2.80;;
44026;SDS011;29696;55.698;37.460;2023-03-01T06:42:41;5.10;;;2.47;;
44026;SDS011;29696;55.698;37.460;2023-03-01T06:45:09;8.93;;;2.77;;
44026;SDS011;29696;55.698;37.460;2023-03-01T06:47:36;9.93;;;3.20;;
44026;SDS011;29696;55.698;37.460;2023-03-01T06:50:02;4.43;;;3.07;;
44026;SDS011;29696;55.698;37.460;2023-03-01T06:52:29;5.20;;;2.50;;
44026;SDS011;29696;55.698;37.460;2023-03-01T06:54:55;4.73;;;2.67;;
44026;SDS011;29696;55.698;37.460;2023-03-01T06:57:22;17.40;;;3.83;;
44026;SDS011;29696;55.698;37.460;2023-03-01T06:59:48;3.30;;;2.03;;
44026;SDS011;29696;55.698;37.460;2023-03-01T07:02:14;6.53;;;2.50;;
44026;SDS011;29696;55.698;37.460;2023-03-01T07:04:41;2.77;;;2.43;;
44026;SDS011;29696;55.698;37.460;2023-03-01T07:07:08;4.83;;;2.07;;
44026;SDS011;29696;55.698;37.460;2023-03-01T07:09:34;3.43;;;1.40;;
44026;SDS011;29696;55.698;37.460;2023-03-01T07:12:01;5.53;;;1.80;;
44026;SDS011;29696;55.698;37.460;2023-03-01T07:14:27;2.47;;;1.57;;
44026;SDS011;29696;55.698;37.460;2023-03-01T07:16:54;3.00;;;1.80;;
44026;SDS011;29696;55.698;37.460;2023-03-01T07:19:20;3.53;;;2.10;;
44026;SDS011;29696;55.698;37.460;2023-03-01T07:21:48;6.13;;;1.53;;
44026;SDS011;29696;55.698;37.460;2023-03-01T07:24:14;3.87;;;1.70;;
44026;SDS011;29696;55.698;37.460;2023-03-01T07:26:40;3.80;;;1.33;;
44026;SDS011;29696;55.698;37.460;2023-03-01T07:29:07;7.37;;;2.20;;
44026;SDS011;29696;55.698;37.460;2023-03-01T07:31:35;6.28;;;1.65;;
44026;SDS011;29696;55.698;37.460;2023-03-01T07:34:02;2.63;;;1.20;;
44026;SDS011;29696;55.698;37.460;2023-03-01T07:36:29;6.13;;;2.53;;
44026;SDS011;29696;55.698;37.460;2023-03-01T07:38:56;4.53;;;1.83;;
44026;SDS011;29696;55.698;37.460;2023-03-01T07:41:23;3.25;;;2.08;;
44026;SDS011;29696;55.698;37.460;2023-03-01T07:43:50;5.82;;;2.03;;
44026;SDS011;29696;55.698;37.460;2023-03-01T07:46:16;4.57;;;1.60;;
44026;SDS011;29696;55.698;37.460;2023-03-01T07:48:44;4.85;;;1.92;;
44026;SDS011;29696;55.698;37.460;2023-03-01T07:51:10;4.93;;;2.10;;
44026;SDS011;29696;55.698;37.460;2023-03-01T07:53:37;3.33;;;2.15;;
44026;SDS011;29696;55.698;37.460;2023-03-01T07:56:04;4.28;;;2.35;;
44026;SDS011;29696;55.698;37.460;2023-03-01T07:58:35;3.42;;;2.38;;
44026;SDS011;29696;55.698;37.460;2023-03-01T08:01:03;3.70;;;2.10;;
44026;SDS011;29696;55.698;37.460;2023-03-01T08:03:34;4.55;;;2.17;;
44026;SDS011;29696;55.698;37.460;2023-03-01T08:06:04;23.17;;;1.98;;
44026;SDS011;29696;55.698;37.460;2023-03-01T08:08:32;5.60;;;1.42;;
44026;SDS011;29696;55.698;37.460;2023-03-01T08:10:59;3.53;;;1.55;;
44026;SDS011;29696;55.698;37.460;2023-03-01T08:13:27;3.92;;;1.63;;
44026;SDS011;29696;55.698;37.460;2023-03-01T08:15:54;4.07;;;1.83;;
44026;SDS011;29696;55.698;37.460;2023-03-01T08:18:26;3.47;;;1.45;;
44026;SDS011;29696;55.698;37.460;2023-03-01T08:20:52;3.83;;;1.52;;
44026;SDS011;29696;55.698;37.460;2023-03-01T08:23:18;3.58;;;1.83;;
44026;SDS011;29696;55.698;37.460;2023-03-01T08:25:44;3.08;;;1.10;;
44026;SDS011;29696;55.698;37.460;2023-03-01T08:28:11;1.83;;;1.30;;
44026;SDS011;29696;55.698;37.460;2023-03-01T08:30:37;3.17;;;1.65;;
44026;SDS011;29696;55.698;37.460;2023-03-01T08:33:03;5.17;;;2.00;;
44026;SDS011;29696;55.698;37.460;2023-03-01T08:35:30;2.90;;;1.70;;
44026;SDS011;29696;55.698;37.460;2023-03-01T08:37:56;3.27;;;1.50;;
44026;SDS011;29696;55.698;37.460;2023-03-01T08:40:22;4.90;;;1.50;;
44026;SDS011;29696;55.698;37.460;2023-03-01T08:42:48;2.13;;;1.37;;
44026;SDS011;29696;55.698;37.460;2023-03-01T08:45:15;3.23;;;1.77;;
44026;SDS011;29696;55.698;37.460;2023-03-01T08:47:44;3.67;;;1.57;;
44026;SDS011;29696;55.698;37.460;2023-03-01T08:50:11;3.03;;;2.57;;
44026;SDS011;29696;55.698;37.460;2023-03-01T08:52:37;4.20;;;1.63;;
44026;SDS011;29696;55.698;37.460;2023-03-01T08:55:03;2.27;;;1.60;;
44026;SDS011;29696;55.698;37.460;2023-03-01T08:57:30;3.13;;;1.50;;
44026;SDS011;29696;55.698;37.460;2023-03-01T08:59:56;4.43;;;2.13;;
44026;SDS011;29696;55.698;37.460;2023-03-01T09:02:23;2.80;;;2.30;;
44026;SDS011;29696;55.698;37.460;2023-03-01T09:04:49;4.03;;;2.20;;
44026;SDS011;29696;55.698;37.460;2023-03-01T09:07:15;4.10;;;2.03;;
44026;SDS011;29696;55.698;37.460;2023-03-01T09:09:41;4.37;;;1.87;;
44026;SDS011;29696;55.698;37.460;2023-03-01T09:12:08;8.47;;;2.00;;
44026;SDS011;29696;55.698;37.460;2023-03-01T09:14:34;3.30;;;1.57;;
44026;SDS011;29696;55.698;37.460;2023-03-01T09:17:03;3.17;;;1.90;;
44026;SDS011;29696;55.698;37.460;2023-03-01T09:19:29;3.63;;;1.77;;
44026;SDS011;29696;55.698;37.460;2023-03-01T09:21:55;2.33;;;1.70;;
44026;SDS011;29696;55.698;37.460;2023-03-01T09:24:24;1.90;;;1.40;;
44026;SDS011;29696;55.698;37.460;2023-03-01T09:26:52;4.93;;;1.70;;
44026;SDS011;29696;55.698;37.460;2023-03-01T09:29:21;6.07;;;1.60;;
44026;SDS011;29696;55.698;37.460;2023-03-01T09:31:48;2.70;;;1.40;;
44026;SDS011;29696;55.698;37.460;2023-03-01T09:34:15;4.33;;;1.30;;
44026;SDS011;29696;55.698;37.460;2023-03-01T09:36:45;4.00;;;1.60;;
44026;SDS011;29696;55.698;37.460;2023-03-01T09:39:11;2.80;;;1.87;;
44026;SDS011;29696;55.698;37.460;2023-03-01T09:41:45;3.53;;;1.47;;
44026;SDS011;29696;55.698;37.460;2023-03-01T09:47:30;3.33;;;1.57;;
44026;SDS011;29696;55.698;37.460;2023-03-01T09:50:17;2.83;;;1.83;;
44026;SDS011;29696;55.698;37.460;2023-03-01T09:52:46;1.73;;;1.40;;
44026;SDS011;29696;55.698;37.460;2023-03-01T09:55:21;2.67;;;1.75;;
44026;SDS011;29696;55.698;37.460;2023-03-01T09:57:56;2.20;;;1.80;;
44026;SDS011;29696;55.698;37.460;2023-03-01T10:00:47;1.97;;;1.60;;
44026;SDS011;29696;55.698;37.460;2023-03-01T10:06:23;4.90;;;2.03;;
44026;SDS011;29696;55.698;37.460;2023-03-01T10:11:42;4.10;;;1.90;;
44026;SDS011;29696;55.698;37.460;2023-03-01T10:20:56;2.73;;;1.60;;
44026;SDS011;29696;55.698;37.460;2023-03-01T10:23:38;3.13;;;1.47;;
44026;SDS011;29696;55.698;37.460;2023-03-01T10:29:04;2.43;;;1.73;;
44026;SDS011;29696;55.698;37.460;2023-03-01T10:31:51;4.03;;;1.77;;
44026;SDS011;29696;55.698;37.460;2023-03-01T10:34:20;1.53;;;1.20;;
44026;SDS011;29696;55.698;37.460;2023-03-01T10:40:06;2.73;;;1.50;;
44026;SDS011;29696;55.698;37.460;2023-03-01T10:42:35;3.87;;;1.77;;
44026;SDS011;29696;55.698;37.460;2023-03-01T10:48:46;2.63;;;1.97;;
44026;SDS011;29696;55.698;37.460;2023-03-01T10:51:41;2.33;;;1.25;;
44026;SDS011;29696;55.698;37.460;2023-03-01T10:54:20;4.10;;;1.57;;
44026;SDS011;29696;55.698;37.460;2023-03-01T10:56:51;1.73;;;1.50;;
44026;SDS011;29696;55.698;37.460;2023-03-01T10:59:42;4.30;;;2.00;;
44026;SDS011;29696;55.698;37.460;2023-03-01T11:02:17;1.83;;;1.33;;
44026;SDS011;29696;55.698;37.460;2023-03-01T11:07:48;2.10;;;1.53;;
44026;SDS011;29696;55.698;37.460;2023-03-01T11:10:20;8.27;;;1.43;;
44026;SDS011;29696;55.698;37.460;2023-03-01T11:12:50;3.63;;;3.33;;
44026;SDS011;29696;55.698;37.460;2023-03-01T11:15:35;1.60;;;1.50;;
44026;SDS011;29696;55.698;37.460;2023-03-01T11:18:02;1.55;;;1.45;;
44026;SDS011;29696;55.698;37.460;2023-03-01T11:20:32;3.53;;;2.00;;
44026;SDS011;29696;55.698;37.460;2023-03-01T11:23:05;4.03;;;1.73;;
44026;SDS011;29696;55.698;37.460;2023-03-01T11:25:36;3.55;;;1.30;;
44026;SDS011;29696;55.698;37.460;2023-03-01T11:28:07;1.97;;;1.40;;
44026;SDS011;29696;55.698;37.460;2023-03-01T11:31:02;7.60;;;1.40;;
44026;SDS011;29696;55.698;37.460;2023-03-01T11:33:51;3.60;;;1.60;;
44026;SDS011;29696;55.698;37.460;2023-03-01T11:42:19;6.40;;;1.67;;
44026;SDS011;29696;55.698;37.460;2023-03-01T11:44:52;2.93;;;1.63;;
44026;SDS011;29696;55.698;37.460;2023-03-01T11:56:34;3.97;;;1.20;;
44026;SDS011;29696;55.698;37.460;2023-03-01T12:20:50;3.23;;;2.03;;
44026;SDS011;29696;55.698;37.460;2023-03-01T12:23:52;7.23;;;2.00;;
44026;SDS011;29696;55.698;37.460;2023-03-01T12:29:56;2.90;;;1.60;;
44026;SDS011;29696;55.698;37.460;2023-03-01T12:32:47;2.97;;;1.70;;
44026;SDS011;29696;55.698;37.460;2023-03-01T12:35:45;4.60;;;1.80;;
44026;SDS011;29696;55.698;37.460;2023-03-01T12:49:12;1.25;;;1.15;;
44026;SDS011;29696;55.698;37.460;2023-03-01T12:52:02;1.00;;;0.87;;
44026;SDS011;29696;55.698;37.460;2023-03-01T12:54:59;2.33;;;1.20;;
44026;SDS011;29696;55.698;37.460;2023-03-01T12:57:56;2.00;;;1.40;;
44026;SDS011;29696;55.698;37.460;2023-03-01T13:13:22;4.77;;;1.30;;
44026;SDS011;29696;55.698;37.460;2023-03-01T13:21:43;3.77;;;1.73;;
44026;SDS011;29696;55.698;37.460;2023-03-01T13:27:26;2.50;;;1.17;;
44026;SDS011;29696;55.698;37.460;2023-03-01T13:29:56;1.63;;;1.37;;
44026;SDS011;29696;55.698;37.460;2023-03-01T13:32:32;1.90;;;1.10;;
44026;SDS011;29696;55.698;37.460;2023-03-01T13:44:49;2.22;;;1.27;;
44026;SDS011;29696;55.698;37.460;2023-03-01T13:47:16;3.00;;;1.20;;
44026;SDS011;29696;55.698;37.460;2023-03-01T13:49:56;2.37;;;2.17;;
44026;SDS011;29696;55.698;37.460;2023-03-01T13:58:30;2.93;;;1.37;;
44026;SDS011;29696;55.698;37.460;2023-03-01T14:01:02;1.63;;;1.30;;
44026;SDS011;29696;55.698;37.460;2023-03-01T14:03:32;1.30;;;1.20;;
44026;SDS011;29696;55.698;37.460;2023-03-01T14:06:07;5.40;;;1.58;;
44026;SDS011;29696;55.698;37.460;2023-03-01T14:08:39;1.93;;;1.37;;
44026;SDS011;29696;55.698;37.460;2023-03-01T14:14:04;1.30;;;1.20;;
44026;SDS011;29696;55.698;37.460;2023-03-01T14:20:00;3.58;;;1.60;;
44026;SDS011;29696;55.698;37.460;2023-03-01T14:22:35;4.90;;;1.43;;
44026;SDS011;29696;55.698;37.460;2023-03-01T14:25:45;5.50;;;2.03;;
44026;SDS011;29696;55.698;37.460;2023-03-01T14:28:04;2.53;;;1.47;;
44026;SDS011;29696;55.698;37.460;2023-03-01T14:30:42;1.57;;;1.47;;
44026;SDS011;29696;55.698;37.460;2023-03-01T14:33:23;2.97;;;1.33;;
44026;SDS011;29696;55.698;37.460;2023-03-01T14:36:08;2.87;;;1.30;;
44026;SDS011;29696;55.698;37.460;2023-03-01T14:38:38;2.80;;;1.53;;
44026;SDS011;29696;55.698;37.460;2023-03-01T14:41:10;1.73;;;1.63;;
44026;SDS011;29696;55.698;37.460;2023-03-01T14:43:47;6.60;;;2.63;;
44026;SDS011;29696;55.698;37.460;2023-03-01T14:46:35;2.97;;;1.43;;
44026;SDS011;29696;55.698;37.460;2023-03-01T14:49:14;5.03;;;1.93;;
44026;SDS011;29696;55.698;37.460;2023-03-01T14:54:52;1.43;;;1.03;;
44026;SDS011;29696;55.698;37.460;2023-03-01T14:57:24;2.63;;;1.50;;
44026;SDS011;29696;55.698;37.460;2023-03-01T14:59:57;10.57;;;2.23;;
44026;SDS011;29696;55.698;37.460;2023-03-01T15:02:26;6.47;;;1.93;;
44026;SDS011;29696;55.698;37.460;2023-03-01T15:04:56;2.40;;;1.83;;
44026;SDS011;29696;55.698;37.460;2023-03-01T15:07:32;9.33;;;1.40;;
44026;SDS011;29696;55.698;37.460;2023-03-01T15:10:02;1.90;;;1.40;;
44026;SDS011;29696;55.698;37.460;2023-03-01T15:15:19;6.80;;;1.77;;
44026;SDS011;29696;55.698;37.460;2023-03-01T15:18:17;6.93;;;1.57;;
44026;SDS011;29696;55.698;37.460;2023-03-01T15:20:46;2.47;;;1.57;;
44026;SDS011;29696;55.698;37.460;2023-03-01T15:23:19;4.13;;;1.33;;
44026;SDS011;29696;55.698;37.460;2023-03-01T15:25:51;7.80;;;2.17;;
44026;SDS011;29696;55.698;37.460;2023-03-01T15:28:28;3.15;;;1.20;;
44026;SDS011;29696;55.698;37.460;2023-03-01T15:31:12;3.47;;;1.80;;
44026;SDS011;29696;55.698;37.460;2023-03-01T15:33:46;4.00;;;1.47;;
44026;SDS011;29696;55.698;37.460;2023-03-01T15:36:36;1.80;;;1.30;;
44026;SDS011;29696;55.698;37.460;2023-03-01T15:39:27;3.15;;;1.45;;
44026;SDS011;29696;55.698;37.460;2023-03-01T15:42:50;1.43;;;1.33;;
44026;SDS011;29696;55.698;37.460;2023-03-01T15:45:22;1.40;;;1.30;;
44026;SDS011;29696;55.698;37.460;2023-03-01T15:47:56;1.60;;;1.50;;
44026;SDS011;29696;55.698;37.460;2023-03-01T15:50:25;3.23;;;1.40;;
44026;SDS011;29696;55.698;37.460;2023-03-01T15:52:56;2.50;;;1.57;;
44026;SDS011;29696;55.698;37.460;2023-03-01T15:55:26;1.70;;;1.23;;
44026;SDS011;29696;55.698;37.460;2023-03-01T16:00:46;3.27;;;1.23;;
44026;SDS011;29696;55.698;37.460;2023-03-01T16:03:15;2.40;;;1.40;;
44026;SDS011;29696;55.698;37.460;2023-03-01T16:05:50;1.67;;;1.17;;
44026;SDS011;29696;55.698;37.460;2023-03-01T16:08:17;5.07;;;1.23;;
44026;SDS011;29696;55.698;37.460;2023-03-01T16:10:44;3.13;;;1.47;;
44026;SDS011;29696;55.698;37.460;2023-03-01T16:13:12;2.03;;;1.10;;
44026;SDS011;29696;55.698;37.460;2023-03-01T16:15:39;3.23;;;1.43;;
44026;SDS011;29696;55.698;37.460;2023-03-01T16:18:06;1.30;;;1.20;;
44026;SDS011;29696;55.698;37.460;2023-03-01T16:20:34;1.73;;;1.00;;
44026;SDS011;29696;55.698;37.460;2023-03-01T16:23:01;3.93;;;1.40;;
44026;SDS011;29696;55.698;37.460;2023-03-01T16:25:33;3.17;;;2.17;;
44026;SDS011;29696;55.698;37.460;2023-03-01T16:28:03;2.03;;;1.60;;
44026;SDS011;29696;55.698;37.460;2023-03-01T16:30:34;2.93;;;1.67;;
44026;SDS011;29696;55.698;37.460;2023-03-01T16:33:01;2.30;;;1.40;;
44026;SDS011;29696;55.698;37.460;2023-03-01T16:35:28;8.13;;;3.03;;
44026;SDS011;29696;55.698;37.460;2023-03-01T16:37:54;1.33;;;1.13;;
44026;SDS011;29696;55.698;37.460;2023-03-01T16:40:22;6.00;;;1.63;;
44026;SDS011;29696;55.698;37.460;2023-03-01T16:42:53;1.90;;;1.27;;
44026;SDS011;29696;55.698;37.460;2023-03-01T16:45:21;1.53;;;1.37;;
44026;SDS011;29696;55.698;37.460;2023-03-01T16:47:47;1.80;;;1.40;;
44026;SDS011;29696;55.698;37.460;2023-03-01T16:50:13;5.27;;;1.67;;
44026;SDS011;29696;55.698;37.460;2023-03-01T16:52:40;1.53;;;1.10;;
44026;SDS011;29696;55.698;37.460;2023-03-01T16:55:06;2.10;;;1.43;;
44026;SDS011;29696;55.698;37.460;2023-03-01T16:57:36;3.33;;;2.23;;
44026;SDS011;29696;55.698;37.460;2023-03-01T17:00:04;2.50;;;1.63;;
44026;SDS011;29696;55.698;37.460;2023-03-01T17:02:34;2.07;;;1.20;;
44026;SDS011;29696;55.698;37.460;2023-03-01T17:05:01;1.63;;;1.53;;
44026;SDS011;29696;55.698;37.460;2023-03-01T17:07:29;6.53;;;1.60;;
44026;SDS011;29696;55.698;37.460;2023-03-01T17:10:00;2.23;;;1.37;;
44026;SDS011;29696;55.698;37.460;2023-03-01T17:12:29;1.23;;;1.00;;
44026;SDS011;29696;55.698;37.460;2023-03-01T17:14:55;4.67;;;1.80;;
44026;SDS011;29696;55.698;37.460;2023-03-01T17:17:22;2.00;;;1.20;;
44026;SDS011;29696;55.698;37.460;2023-03-01T17:19:48;1.57;;;1.47;;
44026;SDS011;29696;55.698;37.460;2023-03-01T17:22:14;3.23;;;1.40;;
44026;SDS011;29696;55.698;37.460;2023-03-01T17:24:42;2.90;;;1.43;;